createdAt,value
2019-03-24T00:02:01.547Z,6.19
2019-03-24T00:04:30.390Z,6.18
2019-03-24T00:06:59.185Z,6.18
2019-03-24T00:09:27.616Z,6.17
2019-03-24T00:11:56.144Z,6.14
2019-03-24T00:14:24.639Z,6.13
2019-03-24T00:16:53.153Z,6.13
2019-03-24T00:19:21.649Z,6.12
2019-03-24T00:21:50.092Z,6.09
2019-03-24T00:24:18.549Z,6.06
2019-03-24T00:26:47.106Z,6.04
2019-03-24T00:29:16.076Z,6.04
2019-03-24T00:31:44.792Z,6.03
2019-03-24T00:34:13.534Z,6.01
2019-03-24T00:36:41.966Z,6.00
2019-03-24T00:39:10.417Z,5.99
2019-03-24T00:41:38.873Z,5.96
2019-03-24T00:44:07.295Z,5.95
2019-03-24T00:46:35.755Z,5.96
2019-03-24T00:49:04.258Z,5.97
2019-03-24T00:51:32.720Z,5.99
2019-03-24T00:54:01.354Z,5.97
2019-03-24T00:56:31.050Z,5.96
2019-03-24T00:58:59.492Z,5.95
2019-03-24T01:01:27.925Z,5.95
2019-03-24T01:03:56.522Z,5.95
2019-03-24T01:06:24.982Z,5.94
2019-03-24T01:08:53.486Z,5.94
2019-03-24T01:11:21.941Z,5.94
2019-03-24T01:13:50.379Z,5.94
2019-03-24T01:16:18.800Z,5.95
2019-03-24T01:18:47.755Z,5.99
2019-03-24T01:21:16.198Z,5.98
2019-03-24T01:23:44.637Z,5.96
2019-03-24T01:26:13.083Z,5.94
2019-03-24T01:28:41.522Z,5.94
2019-03-24T01:31:09.949Z,5.94
2019-03-24T01:37:06.791Z,5.94
2019-03-24T01:39:35.460Z,5.92
2019-03-24T01:42:03.916Z,5.90
2019-03-24T01:44:32.792Z,5.89
2019-03-24T01:47:01.220Z,5.87
2019-03-24T01:49:29.670Z,5.86
2019-03-24T01:51:58.302Z,5.85
2019-03-24T01:54:26.908Z,5.84
2019-03-24T01:56:55.351Z,5.82
2019-03-24T01:59:23.825Z,5.82
2019-03-24T02:01:52.602Z,5.79
2019-03-24T02:04:21.023Z,5.79
2019-03-24T02:06:49.710Z,5.78
2019-03-24T02:09:18.155Z,5.77
2019-03-24T02:11:46.591Z,5.75
2019-03-24T02:14:15.051Z,5.72
2019-03-24T02:16:43.542Z,5.71
2019-03-24T02:19:11.961Z,5.70
2019-03-24T02:21:40.753Z,5.68
2019-03-24T02:24:09.601Z,5.67
2019-03-24T02:26:38.082Z,5.65
2019-03-24T02:29:07.021Z,5.64
2019-03-24T02:31:35.477Z,5.63
2019-03-24T02:34:03.911Z,5.63
2019-03-24T02:36:32.404Z,5.62
2019-03-24T02:39:00.851Z,5.59
2019-03-24T02:41:29.305Z,5.59
2019-03-24T02:43:58.003Z,5.58
2019-03-24T02:46:27.763Z,5.58
2019-03-24T02:48:56.200Z,5.54
2019-03-24T02:51:25.138Z,5.52
2019-03-24T02:53:53.641Z,5.49
2019-03-24T02:56:22.176Z,5.48
2019-03-24T02:58:50.824Z,5.47
2019-03-24T03:01:19.274Z,5.47
2019-03-24T03:03:47.723Z,5.48
2019-03-24T03:06:16.227Z,5.47
2019-03-24T03:08:44.656Z,5.47
2019-03-24T03:11:15.421Z,5.47
2019-03-24T03:13:43.916Z,5.45
2019-03-24T03:16:12.334Z,5.45
2019-03-24T03:18:40.741Z,5.43
2019-03-24T03:21:09.256Z,5.41
2019-03-24T03:23:37.912Z,5.43
2019-03-24T03:26:06.374Z,5.42
2019-03-24T03:28:35.246Z,5.43
2019-03-24T03:31:03.959Z,5.43
2019-03-24T03:33:32.405Z,5.44
2019-03-24T03:36:01.151Z,5.43
2019-03-24T03:38:29.588Z,5.43
2019-03-24T03:40:58.049Z,5.43
2019-03-24T03:43:26.506Z,5.43
2019-03-24T03:45:54.947Z,5.41
2019-03-24T03:48:23.366Z,5.41
2019-03-24T03:50:51.995Z,5.40
2019-03-24T03:53:20.429Z,5.39
2019-03-24T03:55:50.140Z,5.40
2019-03-24T03:58:18.677Z,5.41
2019-03-24T04:00:47.265Z,5.39
2019-03-24T04:03:15.749Z,5.39
2019-03-24T04:05:44.176Z,5.36
2019-03-24T04:08:12.609Z,5.35
2019-03-24T04:10:41.044Z,5.32
2019-03-24T04:13:09.497Z,5.30
2019-03-24T04:15:37.939Z,5.31
2019-03-24T04:18:06.453Z,5.35
2019-03-24T04:20:35.097Z,5.37
2019-03-24T04:23:03.645Z,5.36
2019-03-24T04:25:32.331Z,5.36
2019-03-24T04:28:00.886Z,5.35
2019-03-24T04:30:29.313Z,5.36
2019-03-24T04:32:57.833Z,5.38
2019-03-24T04:35:26.439Z,5.39
2019-03-24T04:37:54.967Z,5.39
2019-03-24T04:40:23.560Z,5.40
2019-03-24T04:42:52.026Z,5.41
2019-03-24T04:45:20.604Z,5.43
2019-03-24T04:47:49.063Z,5.44
2019-03-24T04:50:18.055Z,5.45
2019-03-24T04:52:46.516Z,5.45
2019-03-24T04:55:15.358Z,5.44
2019-03-24T04:57:43.892Z,5.40
2019-03-24T05:00:12.861Z,5.35
2019-03-24T05:02:41.334Z,5.33
2019-03-24T05:05:10.319Z,5.31
2019-03-24T05:07:40.346Z,5.31
2019-03-24T05:10:15.085Z,5.31
2019-03-24T05:12:43.551Z,5.31
2019-03-24T05:15:11.992Z,5.31
2019-03-24T05:17:40.473Z,5.32
2019-03-24T05:20:08.949Z,5.32
2019-03-24T05:22:37.396Z,5.34
2019-03-24T05:25:06.086Z,5.36
2019-03-24T05:27:34.789Z,5.35
2019-03-24T05:30:03.489Z,5.32
2019-03-24T05:32:32.454Z,5.32
2019-03-24T05:35:00.907Z,5.31
2019-03-24T05:37:29.345Z,5.34
2019-03-24T05:39:57.869Z,5.37
2019-03-24T05:42:26.306Z,5.41
2019-03-24T05:44:54.795Z,5.40
2019-03-24T05:47:23.416Z,5.38
2019-03-24T05:49:51.989Z,5.37
2019-03-24T05:52:20.455Z,5.37
2019-03-24T05:54:49.077Z,5.37
2019-03-24T05:57:17.510Z,5.37
2019-03-24T05:59:45.952Z,5.38
2019-03-24T06:02:14.420Z,5.40
2019-03-24T06:04:42.878Z,5.44
2019-03-24T06:07:11.303Z,5.48
2019-03-24T06:09:40.043Z,5.53
2019-03-24T06:12:08.709Z,5.57
2019-03-24T06:14:37.144Z,5.59
2019-03-24T06:17:05.971Z,5.61
2019-03-24T06:19:34.388Z,5.63
2019-03-24T06:22:02.846Z,5.65
2019-03-24T06:24:31.393Z,5.68
2019-03-24T06:26:59.814Z,5.73
2019-03-24T06:29:29.499Z,5.77
2019-03-24T06:31:58.070Z,5.82
2019-03-24T06:34:26.509Z,5.86
2019-03-24T06:36:54.957Z,5.88
2019-03-24T06:39:23.723Z,5.91
2019-03-24T06:41:52.137Z,5.94
2019-03-24T06:44:20.655Z,6.00
2019-03-24T06:46:49.158Z,6.04
2019-03-24T06:49:17.614Z,6.09
2019-03-24T06:51:46.044Z,6.14
2019-03-24T06:54:14.766Z,6.18
2019-03-24T06:56:43.203Z,6.21
2019-03-24T06:59:11.672Z,6.24
2019-03-24T07:01:40.247Z,6.27
2019-03-24T07:04:08.882Z,6.33
2019-03-24T07:06:37.319Z,6.39
2019-03-24T07:09:07.101Z,6.42
2019-03-24T07:11:35.570Z,6.47
2019-03-24T07:14:04.439Z,6.51
2019-03-24T07:16:33.224Z,6.62
2019-03-24T07:19:01.651Z,6.65
2019-03-24T07:21:30.100Z,6.70
2019-03-24T07:24:00.531Z,6.74
2019-03-24T07:26:29.118Z,6.77
2019-03-24T07:28:57.575Z,6.81
2019-03-24T07:31:26.307Z,6.85
2019-03-24T07:33:54.821Z,6.91
2019-03-24T07:36:23.286Z,6.98
2019-03-24T07:38:52.104Z,7.03
2019-03-24T07:41:20.557Z,7.05
2019-03-24T07:43:48.978Z,7.07
2019-03-24T07:46:17.574Z,7.09
2019-03-24T07:48:46.071Z,7.13
2019-03-24T07:51:14.580Z,7.16
2019-03-24T07:53:43.210Z,7.17
2019-03-24T07:56:11.670Z,7.19
2019-03-24T07:58:40.525Z,7.23
2019-03-24T08:01:09.532Z,7.31
2019-03-24T08:03:38.129Z,7.42
2019-03-24T08:06:06.959Z,7.56
2019-03-24T08:08:43.993Z,7.67
2019-03-24T08:11:08.072Z,7.76
2019-03-24T08:13:37.122Z,7.81
2019-03-24T08:16:07.709Z,7.83
2019-03-24T08:18:38.204Z,7.86
2019-03-24T08:21:07.361Z,7.95
2019-03-24T08:23:38.881Z,8.08
2019-03-24T08:26:09.536Z,8.22
2019-03-24T08:28:41.222Z,8.36
2019-03-24T08:31:13.111Z,8.41
2019-03-24T08:33:44.809Z,8.40
2019-03-24T08:36:15.622Z,8.46
2019-03-24T08:38:44.226Z,8.58
2019-03-24T08:41:13.398Z,8.72
2019-03-24T08:43:42.967Z,8.82
2019-03-24T08:46:15.692Z,8.92
2019-03-24T08:48:45.725Z,9.04
2019-03-24T08:51:15.011Z,9.10
2019-03-24T08:53:44.872Z,9.12
2019-03-24T08:56:14.005Z,9.03
2019-03-24T08:58:44.764Z,8.95
2019-03-24T09:01:13.336Z,8.95
2019-03-24T09:03:41.771Z,9.01
2019-03-24T09:06:12.870Z,9.05
2019-03-24T09:08:41.980Z,9.07
2019-03-24T09:11:13.794Z,9.05
2019-03-24T09:13:42.856Z,9.04
2019-03-24T09:16:14.716Z,9.04
2019-03-24T09:18:52.501Z,9.05
2019-03-24T09:21:16.031Z,9.09
2019-03-24T09:23:45.310Z,9.10
2019-03-24T09:26:16.902Z,9.12
2019-03-24T09:28:47.014Z,9.16
2019-03-24T09:31:17.280Z,9.17
2019-03-24T09:33:47.138Z,9.17
2019-03-24T09:36:19.518Z,9.17
2019-03-24T09:38:51.334Z,9.15
2019-03-24T09:41:20.939Z,9.17
2019-03-24T09:43:50.396Z,9.20
2019-03-24T09:46:19.662Z,9.22
2019-03-24T09:49:02.448Z,9.27
2019-03-24T09:51:23.080Z,9.31
2019-03-24T09:53:52.049Z,9.31
2019-03-24T09:56:21.477Z,9.27
2019-03-24T09:58:51.109Z,9.31
2019-03-24T10:01:20.749Z,9.36
2019-03-24T10:03:49.847Z,9.47
2019-03-24T10:06:18.535Z,9.60
2019-03-24T10:08:47.659Z,9.73
2019-03-24T10:11:18.706Z,9.80
2019-03-24T10:13:48.916Z,9.83
2019-03-24T10:16:19.345Z,9.94
2019-03-24T10:18:48.941Z,10.02
2019-03-24T10:21:19.142Z,10.14
2019-03-24T10:23:52.923Z,10.20
2019-03-24T10:26:23.140Z,10.31
2019-03-24T10:28:52.876Z,10.48
2019-03-24T10:31:21.821Z,10.56
2019-03-24T10:33:51.578Z,10.64
2019-03-24T10:36:21.532Z,10.61
2019-03-24T10:38:55.056Z,10.59
2019-03-24T10:41:26.554Z,10.62
2019-03-24T10:43:57.046Z,10.63
2019-03-24T10:46:27.184Z,10.66
2019-03-24T10:48:56.855Z,10.73
2019-03-24T10:51:27.066Z,10.72
2019-03-24T10:53:57.393Z,10.62
2019-03-24T10:56:26.474Z,10.49
2019-03-24T10:58:57.043Z,10.34
2019-03-24T11:01:27.066Z,10.23
2019-03-24T11:03:57.102Z,10.18
2019-03-24T11:06:27.169Z,10.15
2019-03-24T11:08:57.833Z,10.07
2019-03-24T11:11:27.599Z,9.99
2019-03-24T11:13:58.057Z,10.00
2019-03-24T11:16:29.639Z,9.97
2019-03-24T11:18:58.612Z,9.99
2019-03-24T11:21:28.426Z,10.02
2019-03-24T11:23:57.541Z,9.95
2019-03-24T11:26:27.914Z,9.94
2019-03-24T11:29:00.063Z,9.97
2019-03-24T11:31:29.893Z,10.07
2019-03-24T11:33:59.670Z,10.22
2019-03-24T11:36:30.194Z,10.43
2019-03-24T11:39:00.070Z,10.67
2019-03-24T11:41:30.956Z,10.82
2019-03-24T11:44:00.048Z,10.76
2019-03-24T11:46:30.944Z,10.65
2019-03-24T11:49:02.133Z,10.51
2019-03-24T11:51:30.860Z,10.36
2019-03-24T11:54:01.422Z,10.33
2019-03-24T11:56:32.775Z,10.40
2019-03-24T11:59:04.892Z,10.54
2019-03-24T12:01:38.624Z,10.72
2019-03-24T12:04:14.256Z,10.93
2019-03-24T12:06:46.913Z,11.18
2019-03-24T12:09:26.102Z,11.41
2019-03-24T12:11:57.339Z,11.51
2019-03-24T12:14:26.885Z,11.58
2019-03-24T12:16:56.316Z,11.70
2019-03-24T12:19:27.518Z,11.91
2019-03-24T12:21:58.655Z,12.12
2019-03-24T12:24:28.284Z,12.28
2019-03-24T12:26:57.894Z,12.28
2019-03-24T12:29:29.528Z,12.18
2019-03-24T12:32:00.736Z,12.16
2019-03-24T12:34:33.213Z,12.22
2019-03-24T12:37:05.296Z,12.37
2019-03-24T12:39:37.070Z,12.49
2019-03-24T12:42:07.021Z,12.52
2019-03-24T12:44:37.641Z,12.49
2019-03-24T12:47:13.688Z,12.41
2019-03-24T12:49:42.239Z,12.42
2019-03-24T12:52:13.662Z,12.37
2019-03-24T12:54:43.193Z,12.30
2019-03-24T12:57:11.740Z,12.22
2019-03-24T12:59:40.209Z,12.22
2019-03-24T13:02:09.069Z,12.27
2019-03-24T13:04:37.515Z,12.23
2019-03-24T13:07:05.993Z,12.13
2019-03-24T13:09:34.537Z,12.04
2019-03-24T13:12:02.980Z,12.05
2019-03-24T13:14:31.618Z,12.08
2019-03-24T13:17:00.094Z,12.35
2019-03-24T13:19:28.528Z,12.81
2019-03-24T13:21:57.116Z,13.37
2019-03-24T13:24:25.779Z,13.85
2019-03-24T13:26:54.553Z,14.19
2019-03-24T13:29:23.344Z,14.06
2019-03-24T13:31:52.627Z,13.77
2019-03-24T13:34:21.255Z,13.67
2019-03-24T13:36:51.908Z,13.84
2019-03-24T13:39:20.582Z,14.11
2019-03-24T13:41:49.568Z,14.36
2019-03-24T13:44:19.578Z,14.67
2019-03-24T13:46:50.378Z,15.07
2019-03-24T13:49:19.006Z,15.46
2019-03-24T13:51:47.436Z,15.66
2019-03-24T13:54:16.081Z,15.69
2019-03-24T13:56:44.919Z,15.48
2019-03-24T13:59:13.588Z,15.04
2019-03-24T14:01:44.892Z,14.66
2019-03-24T14:04:13.573Z,14.31
2019-03-24T14:06:42.415Z,14.01
2019-03-24T14:09:14.194Z,13.68
2019-03-24T14:11:44.167Z,13.29
2019-03-24T14:14:13.420Z,12.80
2019-03-24T14:16:42.307Z,12.41
2019-03-24T14:19:10.867Z,12.14
2019-03-24T14:21:39.366Z,12.07
2019-03-24T14:24:09.450Z,12.29
2019-03-24T14:26:38.140Z,12.63
2019-03-24T14:29:08.614Z,12.78
2019-03-24T14:31:38.389Z,12.70
2019-03-24T14:34:07.562Z,12.44
2019-03-24T14:36:36.853Z,12.15
2019-03-24T14:39:05.942Z,12.03
2019-03-24T14:41:34.413Z,12.11
2019-03-24T14:44:02.855Z,12.54
2019-03-24T14:46:31.338Z,13.12
2019-03-24T14:48:59.791Z,13.52
2019-03-24T14:51:28.247Z,13.72
2019-03-24T14:53:56.818Z,13.60
2019-03-24T14:56:25.268Z,13.26
2019-03-24T14:58:53.751Z,12.87
2019-03-24T15:01:22.217Z,12.52
2019-03-24T15:03:50.663Z,12.19
2019-03-24T15:06:19.251Z,12.20
2019-03-24T15:08:47.778Z,12.58
2019-03-24T15:11:16.218Z,13.08
2019-03-24T15:13:44.684Z,13.47
2019-03-24T15:16:13.152Z,13.75
2019-03-24T15:18:41.593Z,13.77
2019-03-24T15:21:11.462Z,13.95
2019-03-24T15:23:40.981Z,14.11
2019-03-24T15:26:09.828Z,14.29
2019-03-24T15:28:38.272Z,14.43
2019-03-24T15:31:08.099Z,14.31
2019-03-24T15:33:38.084Z,13.99
2019-03-24T15:36:07.967Z,13.82
2019-03-24T15:38:36.441Z,13.99
2019-03-24T15:41:04.967Z,14.30
2019-03-24T15:43:34.054Z,14.66
2019-03-24T15:46:03.053Z,14.95
2019-03-24T15:48:34.062Z,15.12
2019-03-24T15:51:04.256Z,15.37
2019-03-24T15:53:33.061Z,15.52
2019-03-24T15:56:02.133Z,15.61
2019-03-24T15:58:30.693Z,15.70
2019-03-24T16:01:00.621Z,15.91
2019-03-24T16:03:29.885Z,16.00
2019-03-24T16:05:59.993Z,15.85
2019-03-24T16:08:29.443Z,15.50
2019-03-24T16:10:58.506Z,15.10
2019-03-24T16:13:27.234Z,14.57
2019-03-24T16:15:55.733Z,14.04
2019-03-24T16:18:26.254Z,13.64
2019-03-24T16:20:54.874Z,13.52
2019-03-24T16:23:25.134Z,13.44
2019-03-24T16:25:55.739Z,13.13
2019-03-24T16:28:29.977Z,12.79
2019-03-24T16:31:01.177Z,12.58
2019-03-24T16:33:32.783Z,12.54
2019-03-24T16:36:02.522Z,12.35
2019-03-24T16:38:31.790Z,12.12
2019-03-24T16:41:03.143Z,12.00
2019-03-24T16:43:32.292Z,11.85
2019-03-24T16:46:01.593Z,11.76
2019-03-24T16:48:36.879Z,11.67
2019-03-24T16:51:02.149Z,11.52
2019-03-24T16:53:31.763Z,11.27
2019-03-24T16:56:02.756Z,11.04
2019-03-24T16:58:32.825Z,10.78
2019-03-24T17:01:03.688Z,10.53
2019-03-24T17:03:33.104Z,10.26
2019-03-24T17:06:03.268Z,10.02
2019-03-24T17:08:33.174Z,9.80
2019-03-24T17:11:02.084Z,9.63
2019-03-24T17:13:33.363Z,9.50
2019-03-24T17:16:02.330Z,9.40
2019-03-24T17:18:31.494Z,9.26
2019-03-24T17:21:01.135Z,9.12
2019-03-24T17:23:31.861Z,9.01
2019-03-24T17:26:02.671Z,8.88
2019-03-24T17:28:34.149Z,8.78
2019-03-24T17:31:04.471Z,8.66
2019-03-24T17:33:36.103Z,8.58
2019-03-24T17:36:05.519Z,8.49
2019-03-24T17:38:37.260Z,8.40
2019-03-24T17:41:07.384Z,8.31
2019-03-24T17:43:38.181Z,8.23
2019-03-24T17:46:07.379Z,8.15
2019-03-24T17:48:38.006Z,8.07
2019-03-24T17:51:08.745Z,7.99
2019-03-24T17:53:42.059Z,7.90
2019-03-24T17:56:11.646Z,7.81
2019-03-24T17:58:41.945Z,7.75
2019-03-24T18:01:11.165Z,7.69
2019-03-24T18:03:41.604Z,7.63
2019-03-24T18:06:11.105Z,7.58
2019-03-24T18:08:40.490Z,7.51
2019-03-24T18:11:09.481Z,7.43
2019-03-24T18:13:38.478Z,7.35
2019-03-24T18:16:09.923Z,7.27
2019-03-24T18:18:39.313Z,7.19
2019-03-24T18:21:11.914Z,7.12
2019-03-24T18:23:41.491Z,7.06
2019-03-24T18:26:11.166Z,7.00
2019-03-24T18:28:39.858Z,6.95
2019-03-24T18:31:09.583Z,6.90
2019-03-24T18:33:40.078Z,6.84
2019-03-24T18:36:09.500Z,6.79
2019-03-24T18:38:38.081Z,6.76
2019-03-24T18:41:07.190Z,6.73
2019-03-24T18:43:35.996Z,6.69
2019-03-24T18:46:05.143Z,6.66
2019-03-24T18:48:35.298Z,6.61
2019-03-24T18:51:04.355Z,6.56
2019-03-24T18:53:33.934Z,6.53
2019-03-24T18:56:07.562Z,6.48
2019-03-24T18:58:37.329Z,6.48
2019-03-24T19:01:09.094Z,6.47
2019-03-24T19:03:38.152Z,6.49
2019-03-24T19:06:06.805Z,6.52
2019-03-24T19:08:35.388Z,6.53
2019-03-24T19:11:04.772Z,6.52
2019-03-24T19:13:33.281Z,6.53
2019-03-24T19:16:02.346Z,6.54
2019-03-24T19:18:31.134Z,6.57
2019-03-24T19:21:00.017Z,6.57
2019-03-24T19:23:31.185Z,6.58
2019-03-24T19:26:00.075Z,6.60
2019-03-24T19:28:29.548Z,6.63
2019-03-24T19:30:58.489Z,6.64
2019-03-24T19:33:29.622Z,6.65
2019-03-24T19:36:02.408Z,6.66
2019-03-24T19:38:33.684Z,6.67
2019-03-24T19:41:02.976Z,6.68
2019-03-24T19:43:32.348Z,6.70
2019-03-24T19:46:01.416Z,6.70
2019-03-24T19:48:30.292Z,6.70
2019-03-24T19:50:59.061Z,6.70
2019-03-24T19:53:27.884Z,6.70
2019-03-24T19:55:56.413Z,6.68
2019-03-24T19:58:24.936Z,6.70
2019-03-24T20:00:56.556Z,6.71
2019-03-24T20:03:25.180Z,6.73
2019-03-24T20:05:53.874Z,6.73
2019-03-24T20:08:22.669Z,6.74
2019-03-24T20:10:51.146Z,6.75
2019-03-24T20:13:19.585Z,6.76
2019-03-24T20:15:48.033Z,6.77
2019-03-24T20:18:16.591Z,6.77
2019-03-24T20:20:45.018Z,6.78
2019-03-24T20:23:13.483Z,6.79
2019-03-24T20:25:43.185Z,6.80
2019-03-24T20:28:11.608Z,6.80
2019-03-24T20:30:40.037Z,6.81
2019-03-24T20:33:08.830Z,6.78
2019-03-24T20:35:37.253Z,6.76
2019-03-24T20:38:05.744Z,6.74
2019-03-24T20:40:34.505Z,6.70
2019-03-24T20:43:02.924Z,6.66
2019-03-24T20:45:31.588Z,6.63
2019-03-24T20:48:00.392Z,6.60
2019-03-24T20:50:28.762Z,6.59
2019-03-24T20:53:04.021Z,6.56
2019-03-24T20:55:27.399Z,6.53
2019-03-24T20:57:55.926Z,6.50
2019-03-24T21:00:37.463Z,6.46
2019-03-24T21:03:26.678Z,6.42
2019-03-24T21:05:55.355Z,6.35
2019-03-24T21:08:23.794Z,6.29
2019-03-24T21:10:52.323Z,6.26
2019-03-24T21:13:20.940Z,6.21
2019-03-24T21:15:49.513Z,6.18
2019-03-24T21:18:18.005Z,6.16
2019-03-24T21:20:46.955Z,6.13
2019-03-24T21:23:15.889Z,6.10
2019-03-24T21:25:44.331Z,6.09
2019-03-24T21:28:13.141Z,6.05
2019-03-24T21:30:41.851Z,6.03
2019-03-24T21:33:10.670Z,6.01
2019-03-24T21:35:39.215Z,6.01
2019-03-24T21:38:07.643Z,6.04
2019-03-24T21:40:36.108Z,6.05
2019-03-24T21:43:06.551Z,6.07
2019-03-24T21:45:35.478Z,6.05
2019-03-24T21:48:04.081Z,6.04
2019-03-24T21:50:32.913Z,6.04
2019-03-24T21:53:01.352Z,6.03
2019-03-24T21:55:29.797Z,6.01
2019-03-24T21:57:58.554Z,6.01
2019-03-24T22:00:32.414Z,6.00
2019-03-24T22:03:00.868Z,5.96
2019-03-24T22:05:29.541Z,5.94
2019-03-24T22:07:57.966Z,5.89
2019-03-24T22:10:26.410Z,5.86
2019-03-24T22:12:54.900Z,5.84
2019-03-24T22:15:23.336Z,5.80
2019-03-24T22:17:52.040Z,5.78
2019-03-24T22:20:20.655Z,5.76
2019-03-24T22:22:49.109Z,5.72
2019-03-24T22:25:17.548Z,5.71
2019-03-24T22:27:46.309Z,5.67
2019-03-24T22:30:15.090Z,5.66
2019-03-24T22:32:43.535Z,5.63
2019-03-24T22:35:12.198Z,5.62
2019-03-24T22:37:40.640Z,5.59
2019-03-24T22:40:09.311Z,5.57
2019-03-24T22:42:37.851Z,5.55
2019-03-24T22:45:06.537Z,5.55
2019-03-24T22:47:35.047Z,5.53
2019-03-24T22:50:05.308Z,5.52
2019-03-24T22:52:35.437Z,5.49
2019-03-24T22:55:07.269Z,5.48
2019-03-24T22:57:36.056Z,5.44
2019-03-24T23:00:08.545Z,5.40
2019-03-24T23:02:37.307Z,5.38
2019-03-24T23:05:06.114Z,5.35
2019-03-24T23:07:34.553Z,5.32
2019-03-24T23:10:03.243Z,5.29
2019-03-24T23:12:31.723Z,5.26
2019-03-24T23:15:00.316Z,5.25
2019-03-24T23:17:28.997Z,5.27
2019-03-24T23:19:57.499Z,5.31
2019-03-24T23:22:25.954Z,5.36
2019-03-24T23:24:54.386Z,5.41
2019-03-24T23:27:22.967Z,5.45
2019-03-24T23:29:51.405Z,5.51
2019-03-24T23:32:19.859Z,5.54
2019-03-24T23:34:48.340Z,5.57
2019-03-24T23:37:16.775Z,5.62
2019-03-24T23:39:45.202Z,5.64
2019-03-24T23:42:14.039Z,5.67
2019-03-24T23:44:42.469Z,5.70
2019-03-24T23:47:10.930Z,5.71
2019-03-24T23:49:39.361Z,5.73
2019-03-24T23:52:07.787Z,5.75
2019-03-24T23:54:36.217Z,5.77
2019-03-24T23:57:04.669Z,5.78
2019-03-24T23:59:33.095Z,5.80
